Time;durP1;ratioP1;P1;durP2;ratioP2;P2;SDS_P1;SDS_P2;PMS_P1;PMS_P2;Temp;Humidity;BMP_temperature;BMP_pressure;BME280_temperature;BME280_humidity;BME280_pressure;Samples;Min_cycle;Max_cycle;Signal;HPM_P1;HPM_P2
2022/02/15 00:00:29;;;;;;;;;2.00;1.75;;;;;20.05;36.58;100612.88;5038638;28;47004;-49
2022/02/15 00:02:54;;;;;;;;;1.00;1.00;;;;;20.03;36.69;100609.50;5056550;28;45300;-52
2022/02/15 00:05:20;;;;;;;;;2.00;2.00;;;;;20.03;36.99;100614.75;5056598;28;45213;-47
2022/02/15 00:07:45;;;;;;;;;2.00;2.00;;;;;20.02;37.20;100617.47;5056750;28;45322;-48
2022/02/15 00:10:11;;;;;;;;;3.75;2.00;;;;;20.02;36.75;100615.69;5056360;28;46282;-48
2022/02/15 00:12:37;;;;;;;;;1.00;1.00;;;;;20.01;36.79;100623.69;5056214;28;45438;-47
2022/02/15 00:15:04;;;;;;;;;2.00;1.00;;;;;19.99;36.87;100615.88;5056346;28;45355;-48
2022/02/15 00:17:30;;;;;;;;;1.25;1.25;;;;;19.98;36.93;100619.44;5056669;28;45335;-48
2022/02/15 00:19:55;;;;;;;;;2.00;2.00;;;;;19.96;37.03;100616.03;5056174;28;46101;-48
2022/02/15 00:22:21;;;;;;;;;1.00;1.00;;;;;19.96;37.23;100623.94;5056318;28;45241;-49
2022/02/15 00:24:46;;;;;;;;;1.00;1.00;;;;;19.95;36.91;100616.97;5056239;28;45763;-46
2022/02/15 00:27:12;;;;;;;;;1.00;1.00;;;;;19.94;36.79;100620.53;5056456;28;45598;-48
2022/02/15 00:29:37;;;;;;;;;1.50;1.00;;;;;19.95;36.62;100624.03;5056116;28;46276;-46
2022/02/15 00:32:03;;;;;;;;;1.00;1.00;;;;;19.93;36.72;100622.34;5056051;28;45228;-48
2022/02/15 00:34:28;;;;;;;;;1.75;1.00;;;;;19.93;37.20;100632.00;5056489;28;45414;-48
2022/02/15 00:36:53;;;;;;;;;2.00;1.00;;;;;19.92;37.18;100635.56;5056509;28;45446;-46
2022/02/15 00:39:19;;;;;;;;;1.00;1.00;;;;;19.89;37.39;100631.31;5055923;28;45750;-45
2022/02/15 00:41:44;;;;;;;;;2.00;2.00;;;;;19.90;36.78;100633.03;5055934;28;45490;-49
2022/02/15 00:44:09;;;;;;;;;1.25;1.25;;;;;19.88;36.92;100642.78;5054682;28;45232;-49
2022/02/15 00:46:35;;;;;;;;;1.00;1.00;;;;;19.87;36.69;100643.69;5056190;28;45420;-50
2022/02/15 00:49:00;;;;;;;;;1.00;1.00;;;;;19.87;36.74;100653.38;5056187;28;46296;-49
2022/02/15 00:51:26;;;;;;;;;1.25;1.25;;;;;19.85;37.23;100645.53;5055828;28;45363;-50
2022/02/15 00:53:51;;;;;;;;;1.25;1.25;;;;;19.85;36.82;100649.97;5055900;28;45339;-49
2022/02/15 00:56:16;;;;;;;;;0.00;0.00;;;;;19.84;36.89;100657.00;5056173;28;45255;-49
2022/02/15 00:58:42;;;;;;;;;0.00;0.00;;;;;19.84;37.23;100664.03;5055727;28;46696;-50
2022/02/15 01:01:07;;;;;;;;;2.00;2.00;;;;;19.82;36.94;100666.75;5055724;28;45416;-52
2022/02/15 01:03:33;;;;;;;;;3.00;1.00;;;;;19.83;37.22;100668.47;5056013;28;45364;-51
2022/02/15 01:05:59;;;;;;;;;1.25;0.50;;;;;19.81;36.98;100667.69;5059292;28;45566;-51
2022/02/15 01:08:28;;;;;;;;;1.00;0.50;;;;;19.80;36.93;100673.00;5059106;28;46391;-48
2022/02/15 01:10:53;;;;;;;;;1.00;1.00;;;;;19.80;37.06;100668.63;5059289;28;45831;-49
2022/02/15 01:13:19;;;;;;;;;1.00;1.00;;;;;19.79;37.33;100677.44;5059290;28;45790;-51
2022/02/15 01:15:44;;;;;;;;;1.25;1.25;;;;;19.77;36.80;100674.91;5059194;28;45343;-49
2022/02/15 01:18:10;;;;;;;;;1.00;1.00;;;;;19.76;37.01;100678.47;5058810;28;46623;-51
2022/02/15 01:20:35;;;;;;;;;1.00;1.00;;;;;19.78;37.51;100681.00;5059003;28;45387;-49
2022/02/15 01:23:01;;;;;;;;;1.25;0.50;;;;;19.75;37.00;100676.75;5059494;28;45442;-48
2022/02/15 01:25:27;;;;;;;;;2.00;2.00;;;;;19.75;37.08;100687.28;5059091;28;45668;-53
2022/02/15 01:27:54;;;;;;;;;1.00;1.00;;;;;19.75;37.34;100694.31;5058840;28;46247;-51
2022/02/15 01:30:19;;;;;;;;;1.00;1.00;;;;;19.74;37.08;100695.22;5058940;28;45848;-49
2022/02/15 01:32:46;;;;;;;;;0.00;0.00;;;;;19.74;37.40;100700.50;5059060;28;45512;-48
2022/02/15 01:35:11;;;;;;;;;1.00;1.00;;;;;19.72;37.40;100692.69;5059179;28;45218;-50
2022/02/15 01:37:37;;;;;;;;;1.00;1.00;;;;;19.73;37.28;100693.56;5058560;28;46181;-48
2022/02/15 01:40:03;;;;;;;;;0.50;0.50;;;;;19.72;37.37;100697.13;5058945;28;45328;-49
2022/02/15 01:42:29;;;;;;;;;1.00;1.00;;;;;19.72;37.33;100702.38;5058679;28;45311;-46
2022/02/15 01:44:54;;;;;;;;;1.00;1.00;;;;;19.71;37.37;100701.53;5058793;28;45348;-45
2022/02/15 01:47:25;;;;;;;;;1.50;1.00;;;;;19.70;37.55;100704.25;5058421;28;45318;-47
2022/02/15 01:49:50;;;;;;;;;1.00;1.00;;;;;19.71;37.07;100711.19;5058566;28;45896;-46
2022/02/15 01:52:18;;;;;;;;;1.00;1.00;;;;;19.69;37.03;100708.63;5058694;28;45300;-48
2022/02/15 01:54:43;;;;;;;;;1.25;1.25;;;;;19.69;36.94;100716.53;5041139;28;45278;-49
2022/02/15 01:57:09;;;;;;;;;4.25;1.00;;;;;19.68;37.38;100717.44;5058289;28;45640;-50
2022/02/15 01:59:35;;;;;;;;;0.25;0.25;;;;;19.67;37.43;100721.03;5058567;28;45647;-47
2022/02/15 02:02:00;;;;;;;;;1.00;1.00;;;;;19.66;37.50;100719.34;5058450;28;45340;-45
2022/02/15 02:07:10;;;;;;;;;1.75;1.75;;;;;19.66;37.38;100729.00;5058242;28;45339;-48
2022/02/15 02:09:35;;;;;;;;;0.25;0.25;;;;;19.65;37.43;100732.53;5058552;28;45248;-46
2022/02/15 02:12:01;;;;;;;;;2.00;2.00;;;;;19.65;37.14;100743.06;5058249;28;45566;-45
2022/02/15 02:14:26;;;;;;;;;1.25;1.00;;;;;19.63;37.13;100740.53;5058266;28;45321;-45
2022/02/15 02:16:52;;;;;;;;;0.50;0.50;;;;;19.64;37.23;100736.97;5057734;28;45792;-44
2022/02/15 02:19:17;;;;;;;;;0.00;0.00;;;;;19.62;37.52;100744.91;5058135;28;45325;-46
2022/02/15 02:21:42;;;;;;;;;1.00;1.00;;;;;19.62;37.67;100739.66;5058123;28;45414;-51
2022/02/15 02:24:08;;;;;;;;;0.00;0.00;;;;;19.63;37.51;100740.53;5058199;28;45597;-48
2022/02/15 02:26:33;;;;;;;;;1.25;1.25;;;;;19.61;37.20;100753.78;5057996;28;45469;-45
2022/02/15 02:28:59;;;;;;;;;0.75;0.75;;;;;19.61;37.15;100750.28;5057878;28;45332;-48
2022/02/15 02:31:24;;;;;;;;;0.75;0.75;;;;;19.62;37.55;100754.59;5057986;28;45330;-49
2022/02/15 02:33:51;;;;;;;;;0.00;0.00;;;;;19.61;37.46;100752.91;5058352;28;45611;-47
2022/02/15 02:36:17;;;;;;;;;1.00;1.00;;;;;19.62;37.22;100759.84;5039864;28;47052;-47
2022/02/15 02:38:42;;;;;;;;;0.00;0.00;;;;;19.60;37.50;100757.31;5057733;28;45305;-45
2022/02/15 02:41:08;;;;;;;;;0.50;0.50;;;;;19.59;37.50;100760.00;5058411;28;45217;-50
2022/02/15 02:43:33;;;;;;;;;0.50;0.00;;;;;19.58;37.44;100759.19;5058054;28;45289;-51
2022/02/15 02:45:58;;;;;;;;;2.50;1.00;;;;;19.59;37.25;100760.00;5057605;28;46142;-46
2022/02/15 02:48:24;;;;;;;;;1.00;1.00;;;;;19.56;37.63;100761.03;5057581;28;45341;-50
2022/02/15 02:50:49;;;;;;;;;1.00;1.00;;;;;19.58;37.41;100771.44;5057780;28;45301;-45
2022/02/15 02:53:18;;;;;;;;;1.50;0.75;;;;;19.56;37.07;100765.44;5057820;28;45497;-45
2022/02/15 02:55:43;;;;;;;;;0.00;0.00;;;;;19.57;37.46;100777.63;5057399;28;51240;-47
2022/02/15 02:58:09;;;;;;;;;1.00;1.00;;;;;19.56;37.56;100776.81;5057591;28;45348;-48
2022/02/15 03:00:35;;;;;;;;;1.00;1.00;;;;;19.56;37.33;100778.59;5057951;28;45479;-44
2022/02/15 03:03:07;;;;;;;;;1.00;1.00;;;;;19.56;37.48;100775.97;5057837;28;45399;-45
2022/02/15 03:05:32;;;;;;;;;1.00;1.00;;;;;19.55;37.63;100779.53;5057311;28;46336;-47
2022/02/15 03:07:57;;;;;;;;;0.00;0.00;;;;;19.55;37.54;100790.03;5057412;28;45334;-54
2022/02/15 03:10:23;;;;;;;;;1.00;1.00;;;;;19.53;37.49;100786.63;5057346;28;45410;-46
2022/02/15 03:12:48;;;;;;;;;1.00;0.75;;;;;19.53;37.05;100786.63;5057591;28;45551;-47
2022/02/15 03:15:13;;;;;;;;;1.00;1.00;;;;;19.52;37.28;100796.28;5056829;28;46118;-46
2022/02/15 03:17:39;;;;;;;;;0.00;0.00;;;;;19.54;37.71;100798.84;5057498;28;45426;-48
2022/02/15 03:20:05;;;;;;;;;2.50;0.25;;;;;19.57;37.90;100801.31;5057278;28;45446;-47
2022/02/15 03:22:30;;;;;;;;;0.75;0.00;;;;;19.61;37.82;100810.75;5057449;28;45508;-49
2022/02/15 03:24:55;;;;;;;;;0.00;0.00;;;;;19.66;37.59;100813.13;5056974;28;45405;-48
2022/02/15 03:27:21;;;;;;;;;2.75;0.00;;;;;19.69;37.50;100813.81;5056427;28;45862;-48
2022/02/15 03:29:46;;;;;;;;;1.00;1.00;;;;;19.74;37.07;100826.72;5038997;28;45416;-50
2022/02/15 03:32:11;;;;;;;;;2.50;1.00;;;;;19.81;37.51;100832.50;5057352;28;45592;-48
2022/02/15 03:34:37;;;;;;;;;2.00;1.00;;;;;19.85;37.17;100831.44;5057226;28;46461;-47
2022/02/15 03:37:02;;;;;;;;;1.00;0.25;;;;;19.91;37.02;100839.03;5056847;28;45279;-47
2022/02/15 03:39:28;;;;;;;;;0.50;0.00;;;;;19.96;36.96;100844.03;5057045;28;45305;-45
2022/02/15 03:44:37;;;;;;;;;1.00;0.00;;;;;20.05;37.24;100846.19;5056769;28;45237;-45
2022/02/15 03:47:03;;;;;;;;;0.75;0.00;;;;;20.10;36.98;100854.69;5038852;28;45379;-44
2022/02/15 03:49:28;;;;;;;;;0.00;0.00;;;;;20.14;36.90;100860.63;5057009;28;45384;-47
2022/02/15 03:51:53;;;;;;;;;0.25;0.25;;;;;20.18;36.80;100862.19;5057071;28;45347;-44
2022/02/15 03:54:19;;;;;;;;;1.25;0.25;;;;;20.21;36.72;100867.28;5056351;28;47746;-44
2022/02/15 03:56:44;;;;;;;;;0.00;0.00;;;;;20.23;37.26;100875.94;5056677;28;45360;-45
2022/02/15 03:59:10;;;;;;;;;1.00;0.25;;;;;20.27;36.88;100874.84;5057016;28;45241;-44
2022/02/15 04:01:35;;;;;;;;;2.00;0.25;;;;;20.30;37.14;100885.22;5056810;28;45185;-45
2022/02/15 04:04:02;;;;;;;;;1.00;1.00;;;;;20.31;37.12;100873.75;5038278;28;46388;-47
2022/02/15 04:06:27;;;;;;;;;0.00;0.00;;;;;20.34;37.01;100889.34;5056434;28;45375;-45
2022/02/15 04:08:52;;;;;;;;;1.00;1.00;;;;;20.36;36.70;100892.75;5056529;28;45362;-46
2022/02/15 04:11:18;;;;;;;;;0.75;0.75;;;;;20.37;36.96;100894.47;5056747;28;45506;-45
2022/02/15 04:13:43;;;;;;;;;2.00;1.00;;;;;20.39;37.03;100902.31;5056049;28;48689;-49
2022/02/15 04:16:10;;;;;;;;;0.00;0.00;;;;;20.38;37.17;100897.97;5056608;28;45474;-47
2022/02/15 04:18:36;;;;;;;;;1.00;1.00;;;;;20.40;37.29;100903.97;5056615;28;45349;-47
2022/02/15 04:21:01;;;;;;;;;0.00;0.00;;;;;20.41;36.76;100921.47;5056491;28;45278;-46
2022/02/15 04:23:26;;;;;;;;;2.00;1.00;;;;;20.39;37.15;100915.47;5038201;28;47346;-46
2022/02/15 04:25:52;;;;;;;;;0.00;0.00;;;;;20.41;36.43;100920.63;5056185;28;45233;-48
2022/02/15 04:28:18;;;;;;;;;0.00;0.00;;;;;20.42;36.62;100924.97;5056214;28;45711;-47
2022/02/15 04:30:43;;;;;;;;;0.25;0.25;;;;;20.41;36.83;100937.25;5055532;28;45622;-48
2022/02/15 04:33:09;;;;;;;;;1.75;1.00;;;;;20.41;36.20;100936.44;5056003;28;46590;-48
2022/02/15 04:35:35;;;;;;;;;0.00;0.00;;;;;20.40;36.81;100935.56;5056043;28;45336;-46
2022/02/15 04:38:00;;;;;;;;;0.75;0.00;;;;;20.41;36.48;100953.06;5056203;28;45337;-46
2022/02/15 04:40:26;;;;;;;;;2.00;0.00;;;;;20.41;36.78;100953.06;5057368;28;45580;-49
2022/02/15 04:42:51;;;;;;;;;0.25;0.00;;;;;20.38;36.25;100946.19;5059437;28;45363;-49
2022/02/15 04:45:17;;;;;;;;;1.75;0.00;;;;;20.38;36.36;100947.97;5059505;28;45466;-47
2022/02/15 04:47:42;;;;;;;;;0.00;0.00;;;;;20.38;36.35;100954.09;5059960;28;45321;-47
2022/02/15 04:50:09;;;;;;;;;1.00;1.00;;;;;20.37;36.39;100957.66;5058520;28;45320;-51
2022/02/15 04:52:34;;;;;;;;;0.25;0.25;;;;;20.36;36.85;100961.22;5059207;28;45475;-47
2022/02/15 04:54:59;;;;;;;;;0.25;0.25;;;;;20.36;36.37;100971.72;5059376;28;45443;-46
2022/02/15 04:57:25;;;;;;;;;0.00;0.00;;;;;20.35;36.16;100970.03;5059596;28;45429;-52
2022/02/15 04:59:50;;;;;;;;;0.75;0.75;;;;;20.33;36.08;100976.31;5059548;28;45480;-47
2022/02/15 05:02:15;;;;;;;;;1.00;1.00;;;;;20.34;36.11;100980.66;5059239;28;45331;-49
2022/02/15 05:04:49;;;;;;;;;1.25;0.00;;;;;20.31;36.34;100973.78;5059484;28;45324;-48
2022/02/15 05:07:19;;;;;;;;;0.00;0.00;;;;;20.32;36.18;100980.75;5059636;28;45371;-47
2022/02/15 05:09:46;;;;;;;;;3.00;0.00;;;;;20.31;36.64;100989.56;5059933;28;45406;-45
2022/02/15 05:12:12;;;;;;;;;0.00;0.00;;;;;20.30;36.49;100985.22;5059365;28;45446;-45
2022/02/15 05:14:37;;;;;;;;;1.00;0.00;;;;;20.30;36.08;100982.59;5058929;28;45743;-46
2022/02/15 05:17:03;;;;;;;;;0.00;0.00;;;;;20.29;36.33;100990.56;5059223;28;45454;-47
2022/02/15 05:19:28;;;;;;;;;0.75;0.00;;;;;20.28;36.52;100992.34;5059119;28;45419;-49
2022/02/15 05:21:54;;;;;;;;;1.00;1.00;;;;;20.27;35.98;100989.81;5058846;28;46443;-47
2022/02/15 05:24:20;;;;;;;;;0.00;0.00;;;;;20.26;36.22;100991.56;5058833;28;45418;-46
2022/02/15 05:26:45;;;;;;;;;1.75;1.00;;;;;20.25;36.42;100989.88;5059429;28;45411;-48
2022/02/15 05:29:11;;;;;;;;;0.50;0.50;;;;;20.23;36.35;100989.09;5059247;28;45548;-48
2022/02/15 05:31:36;;;;;;;;;0.00;0.00;;;;;20.21;36.45;100983.09;5058730;28;46269;-50
2022/02/15 05:34:02;;;;;;;;;0.00;0.00;;;;;20.22;35.97;100995.31;5058908;28;45320;-49
2022/02/15 05:36:28;;;;;;;;;0.25;0.25;;;;;20.20;36.19;100984.00;5058751;28;45239;-47
2022/02/15 05:38:53;;;;;;;;;2.00;0.00;;;;;20.19;36.00;100995.47;5059029;28;45168;-47
2022/02/15 05:41:18;;;;;;;;;0.00;0.00;;;;;20.19;36.44;101000.72;5040400;28;48993;-47
2022/02/15 05:43:44;;;;;;;;;1.00;1.00;;;;;20.17;35.95;101000.81;5058787;28;46813;-47
2022/02/15 05:46:09;;;;;;;;;0.00;0.00;;;;;20.17;36.27;100995.56;5058768;28;45355;-45
2022/02/15 05:48:35;;;;;;;;;2.00;0.00;;;;;20.17;36.47;100997.31;5040855;28;45263;-50
2022/02/15 05:51:00;;;;;;;;;0.00;0.00;;;;;20.16;36.70;101000.88;5057687;28;45700;-48
2022/02/15 05:53:28;;;;;;;;;1.00;0.00;;;;;20.13;36.44;100996.63;5058532;28;45345;-46
2022/02/15 05:55:56;;;;;;;;;0.75;0.75;;;;;20.14;36.54;100997.47;5058591;28;45730;-48
2022/02/15 05:58:25;;;;;;;;;0.00;0.00;;;;;20.13;36.66;101001.03;5058607;28;45257;-48
2022/02/15 06:00:51;;;;;;;;;0.75;0.00;;;;;20.11;36.04;101000.28;5058364;28;46831;-49
2022/02/15 06:06:01;;;;;;;;;1.25;0.00;;;;;20.04;36.13;100997.94;5058154;28;45431;-49
2022/02/15 06:08:27;;;;;;;;;0.75;0.75;;;;;20.06;36.43;101001.34;5058454;28;45372;-52
2022/02/15 06:10:52;;;;;;;;;0.00;0.00;;;;;20.05;36.03;101004.06;5057968;28;46239;-46
2022/02/15 06:13:18;;;;;;;;;0.00;0.00;;;;;20.03;36.41;101017.28;5058461;28;45284;-49
2022/02/15 06:15:44;;;;;;;;;1.50;1.00;;;;;20.01;36.52;101021.75;5058150;28;45445;-52
2022/02/15 06:18:10;;;;;;;;;0.00;0.00;;;;;20.01;36.46;101024.41;5058310;28;45647;-51
2022/02/15 06:20:36;;;;;;;;;3.25;2.00;;;;;19.98;36.15;101018.44;5058032;28;45344;-49
2022/02/15 06:23:02;;;;;;;;;2.00;0.75;;;;;19.96;35.81;101031.69;5058001;28;45383;-49
2022/02/15 06:25:27;;;;;;;;;1.25;1.25;;;;;19.93;35.83;101032.69;5056675;28;45455;-50
2022/02/15 06:27:53;;;;;;;;;1.75;1.00;;;;;19.93;36.03;101042.34;5058114;28;45513;-50
2022/02/15 06:30:18;;;;;;;;;3.00;2.75;;;;;19.90;36.11;101042.50;5058402;28;46275;-49
2022/02/15 06:32:44;;;;;;;;;0.00;0.00;;;;;19.88;35.81;101036.47;5057623;28;45310;-49
2022/02/15 06:35:09;;;;;;;;;1.00;1.00;;;;;19.85;35.87;101040.06;5057938;28;45387;-50
2022/02/15 06:37:36;;;;;;;;;1.75;1.75;;;;;19.82;35.91;101053.38;5058067;28;45366;-50
2022/02/15 06:40:02;;;;;;;;;1.75;1.00;;;;;19.82;35.77;101049.88;5057724;28;45403;-49
2022/02/15 06:42:30;;;;;;;;;0.75;0.75;;;;;19.80;35.86;101043.84;5057627;28;45287;-45
2022/02/15 06:44:57;;;;;;;;;2.00;0.50;;;;;19.76;35.83;101044.00;5057564;28;45437;-46
2022/02/15 06:47:23;;;;;;;;;0.75;0.75;;;;;19.73;35.42;101049.41;5039718;28;45373;-48
2022/02/15 06:49:48;;;;;;;;;1.00;1.00;;;;;19.71;35.84;101053.88;5057767;28;45595;-48
2022/02/15 06:52:13;;;;;;;;;1.00;1.00;;;;;19.70;35.82;101061.88;5057414;28;45280;-52
2022/02/15 06:54:40;;;;;;;;;0.00;0.00;;;;;19.68;35.21;101068.97;5057548;28;45212;-50
2022/02/15 06:57:05;;;;;;;;;1.00;1.00;;;;;19.66;35.36;101066.41;5057726;28;45244;-45
2022/02/15 06:59:30;;;;;;;;;2.00;0.50;;;;;19.65;35.44;101066.47;5057229;28;46446;-46
2022/02/15 07:01:56;;;;;;;;;3.25;1.00;;;;;19.62;35.25;101062.22;5056329;28;45319;-47
2022/02/15 07:04:21;;;;;;;;;1.00;0.25;;;;;19.61;35.23;101068.41;5057863;28;45491;-48
2022/02/15 07:06:46;;;;;;;;;1.00;1.00;;;;;19.58;35.40;101069.41;5057540;28;45605;-47
2022/02/15 07:09:12;;;;;;;;;1.50;1.00;;;;;19.59;35.19;101080.75;5057217;28;47445;-49
2022/02/15 07:11:37;;;;;;;;;1.00;0.00;;;;;19.56;35.22;101083.56;5057252;28;45396;-47
2022/02/15 07:14:04;;;;;;;;;2.75;0.25;;;;;19.53;34.97;101081.06;5057149;28;45441;-49
2022/02/15 07:16:31;;;;;;;;;0.50;0.50;;;;;19.51;35.23;101081.16;5057383;28;45577;-47
2022/02/15 07:18:57;;;;;;;;;1.00;1.00;;;;;19.50;34.98;101081.19;5055760;28;48268;-47
2022/02/15 07:21:23;;;;;;;;;3.25;1.00;;;;;19.50;35.24;101083.84;5057043;28;45724;-42
2022/02/15 07:23:48;;;;;;;;;1.25;1.00;;;;;19.47;35.23;101093.56;5057541;28;45316;-46
2022/02/15 07:26:14;;;;;;;;;1.00;0.00;;;;;19.46;35.50;101086.59;5057293;28;45391;-47
2022/02/15 07:28:39;;;;;;;;;2.75;1.00;;;;;19.45;35.23;101089.31;5056766;28;45531;-44
2022/02/15 07:31:05;;;;;;;;;2.00;0.00;;;;;19.44;35.32;101095.50;5038813;28;45409;-44
2022/02/15 07:33:30;;;;;;;;;1.00;1.00;;;;;19.44;35.20;101096.34;5057105;28;45347;-49
2022/02/15 07:35:55;;;;;;;;;2.25;1.00;;;;;19.43;35.21;101107.78;5057106;28;45142;-44
2022/02/15 07:38:21;;;;;;;;;1.75;1.00;;;;;19.40;35.16;101100.03;5057052;28;45683;-46
2022/02/15 07:40:46;;;;;;;;;1.25;1.25;;;;;19.39;35.24;101095.69;5056689;28;45354;-46
2022/02/15 07:43:12;;;;;;;;;0.00;0.00;;;;;19.40;35.01;101101.84;5056534;28;45421;-47
2022/02/15 07:45:39;;;;;;;;;2.00;2.00;;;;;19.38;34.69;101101.03;5056692;28;45645;-44
2022/02/15 07:48:04;;;;;;;;;2.50;1.50;;;;;19.38;35.08;101103.66;5056486;28;46482;-43
2022/02/15 07:50:29;;;;;;;;;2.00;2.00;;;;;19.35;35.05;101104.63;5056817;28;45329;-45
2022/02/15 07:52:55;;;;;;;;;0.25;0.00;;;;;19.36;35.61;101111.59;5056854;28;45320;-46
2022/02/15 07:55:21;;;;;;;;;4.25;1.00;;;;;19.35;35.02;101109.06;5057339;28;45539;-45
2022/02/15 07:57:47;;;;;;;;;0.50;0.50;;;;;19.37;35.64;101113.31;5056617;28;45355;-46
2022/02/15 08:00:18;;;;;;;;;2.00;1.00;;;;;19.38;35.36;101115.03;5056473;28;45300;-46
2022/02/15 08:02:45;;;;;;;;;1.50;1.25;;;;;19.39;35.70;101116.72;5056407;28;45506;-47
2022/02/15 08:05:10;;;;;;;;;0.75;0.00;;;;;19.39;35.47;101116.72;5056778;28;45512;-45
2022/02/15 08:07:37;;;;;;;;;2.50;0.75;;;;;19.39;35.70;101122.00;5056222;28;45284;-49
2022/02/15 08:10:03;;;;;;;;;2.00;0.00;;;;;19.40;35.82;101134.22;5056295;28;45723;-48
2022/02/15 08:12:29;;;;;;;;;2.25;2.25;;;;;19.40;35.82;101142.09;5055997;28;45242;-47
2022/02/15 08:14:54;;;;;;;;;2.00;0.00;;;;;19.40;35.90;101131.59;5056433;28;45500;-48
2022/02/15 08:17:19;;;;;;;;;0.00;0.00;;;;;19.42;36.05;101153.41;5056273;28;46894;-49
2022/02/15 08:19:45;;;;;;;;;2.00;0.00;;;;;19.41;35.89;101146.44;5031413;28;45304;-47
2022/02/15 08:22:11;;;;;;;;;1.00;1.00;;;;;19.43;36.25;101147.22;5027942;28;45492;-48
2022/02/15 08:24:36;;;;;;;;;3.50;0.75;;;;;19.43;35.92;101141.97;5050854;28;45698;-49
2022/02/15 08:27:02;;;;;;;;;1.00;1.00;;;;;19.44;35.96;101146.31;5056055;28;46321;-48
2022/02/15 08:29:28;;;;;;;;;0.00;0.00;;;;;19.44;36.33;101141.03;5054784;28;45462;-48
2022/02/15 08:31:54;;;;;;;;;0.25;0.25;;;;;19.44;36.42;101146.31;5038535;28;45363;-48
2022/02/15 08:34:20;;;;;;;;;1.00;1.00;;;;;19.44;35.95;101151.56;5055078;28;45503;-49
2022/02/15 08:36:45;;;;;;;;;0.00;0.00;;;;;19.45;36.04;101169.03;5055921;28;45484;-49
2022/02/15 08:39:11;;;;;;;;;2.00;1.00;;;;;19.44;35.94;101175.22;5055882;28;45384;-47
2022/02/15 08:41:38;;;;;;;;;1.25;1.00;;;;;19.45;36.11;101174.28;5055920;28;45258;-43
2022/02/15 08:44:04;;;;;;;;;2.00;0.00;;;;;19.44;36.08;101177.84;5056281;28;45561;-45
2022/02/15 08:46:29;;;;;;;;;0.00;0.00;;;;;19.46;36.11;101185.66;5055775;28;46526;-44
2022/02/15 08:48:55;;;;;;;;;1.00;1.00;;;;;19.45;36.20;101174.28;5056165;28;45305;-46
2022/02/15 08:51:20;;;;;;;;;0.75;0.00;;;;;19.47;36.00;101180.31;5054366;28;45365;-45
2022/02/15 08:53:50;;;;;;;;;2.00;1.00;;;;;19.47;36.24;101182.94;5055962;28;45517;-44
2022/02/15 08:56:18;;;;;;;;;0.50;0.00;;;;;19.47;35.98;101166.34;5055752;28;46160;-48
2022/02/15 08:58:43;;;;;;;;;0.00;0.00;;;;;19.47;36.46;101172.44;5055647;28;45276;-46
2022/02/15 09:01:09;;;;;;;;;0.00;0.00;;;;;19.47;36.40;101161.91;5055787;28;45280;-48
2022/02/15 09:03:35;;;;;;;;;1.50;1.00;;;;;19.49;36.30;101166.25;5055978;28;45351;-49
2022/02/15 09:06:01;;;;;;;;;1.00;1.00;;;;;19.49;36.36;101174.13;5055547;28;45197;-48
2022/02/15 09:08:27;;;;;;;;;2.00;1.00;;;;;19.49;36.11;101151.34;5055950;28;45896;-44
2022/02/15 09:10:52;;;;;;;;;2.50;1.00;;;;;19.50;36.29;101144.28;5055651;28;45305;-44
2022/02/15 09:13:17;;;;;;;;;1.00;1.00;;;;;19.47;36.24;101135.63;5055735;28;45333;-46
2022/02/15 09:15:46;;;;;;;;;1.00;1.00;;;;;19.50;36.25;101121.50;5055501;28;45466;-43
2022/02/15 09:18:12;;;;;;;;;0.00;0.00;;;;;19.51;36.70;101130.22;5055744;28;45339;-45
2022/02/15 09:20:38;;;;;;;;;0.00;0.00;;;;;19.51;36.45;101131.09;5055633;28;45331;-45
2022/02/15 09:23:04;;;;;;;;;1.00;1.00;;;;;19.53;36.32;101141.53;5055680;28;45335;-46
2022/02/15 09:25:30;;;;;;;;;0.50;0.50;;;;;19.51;36.30;101141.63;5056179;28;46379;-44
2022/02/15 09:27:55;;;;;;;;;0.00;0.00;;;;;19.52;36.25;101147.72;5059138;28;45370;-45
2022/02/15 09:30:20;;;;;;;;;1.00;0.75;;;;;19.51;36.71;101146.00;5058910;28;45225;-47
2022/02/15 09:32:46;;;;;;;;;0.50;0.50;;;;;19.53;36.70;101150.25;5041015;28;45519;-43
2022/02/15 09:35:11;;;;;;;;;1.00;1.00;;;;;19.52;36.58;101142.47;5058688;28;46568;-45
2022/02/15 09:37:37;;;;;;;;;0.75;0.75;;;;;19.53;36.18;101155.53;5058670;28;45336;-46
2022/02/15 09:40:04;;;;;;;;;2.25;1.25;;;;;19.55;36.60;101166.00;5058674;28;45286;-43
2022/02/15 09:42:30;;;;;;;;;0.50;0.00;;;;;19.54;36.69;101157.22;5059156;28;45573;-46
2022/02/15 09:44:55;;;;;;;;;1.50;1.00;;;;;19.55;36.35;101158.09;5058519;28;46309;-44
2022/02/15 09:47:26;;;;;;;;;1.00;1.00;;;;;19.56;36.51;101167.69;5058712;28;45383;-44
2022/02/15 09:49:52;;;;;;;;;2.00;2.00;;;;;19.54;36.71;101162.50;5058663;28;45347;-45
2022/02/15 09:52:23;;;;;;;;;1.25;1.25;;;;;19.56;36.24;101165.06;5058789;28;45277;-47
2022/02/15 09:54:50;;;;;;;;;0.50;0.00;;;;;19.55;35.76;101153.69;5056666;28;46169;-44
2022/02/15 09:57:17;;;;;;;;;3.00;0.00;;;;;19.53;35.95;101150.25;5056886;28;45375;-44
2022/02/15 09:59:43;;;;;;;;;2.00;1.00;;;;;19.53;35.95;101158.16;5058700;28;45441;-45
2022/02/15 10:02:13;;;;;;;;;2.00;0.75;;;;;19.52;36.33;101153.81;5058636;28;45470;-42
2022/02/15 10:04:39;;;;;;;;;0.00;0.00;;;;;19.53;36.08;101155.53;5058102;28;48262;-44
2022/02/15 10:07:07;;;;;;;;;1.00;0.00;;;;;19.53;36.38;101176.56;5058220;28;45235;-42
2022/02/15 10:09:34;;;;;;;;;1.00;1.00;;;;;19.51;36.64;101156.53;5057172;28;45426;-48
2022/02/15 10:12:10;;;;;;;;;0.25;0.25;;;;;19.53;36.43;101165.19;5058975;28;45447;-46
2022/02/15 10:14:40;;;;;;;;;0.75;0.75;;;;;19.53;36.18;101155.53;5058020;28;46566;-47
2022/02/15 10:17:08;;;;;;;;;1.00;1.00;;;;;19.54;36.42;101156.38;5058137;28;45242;-45
2022/02/15 10:19:34;;;;;;;;;0.00;0.00;;;;;19.52;36.35;101159.06;5058101;28;45312;-45
2022/02/15 10:22:02;;;;;;;;;1.00;1.00;;;;;19.54;36.67;101162.50;5058681;28;45540;-44
2022/02/15 10:24:30;;;;;;;;;2.00;1.75;;;;;19.53;36.35;101176.56;5058148;28;46529;-46
2022/02/15 10:27:06;;;;;;;;;2.00;0.00;;;;;19.53;36.29;101178.34;5057780;28;45331;-46
2022/02/15 10:29:34;;;;;;;;;1.50;0.50;;;;;19.52;36.53;101187.16;5058163;28;45410;-42
2022/02/15 10:32:03;;;;;;;;;0.25;0.00;;;;;19.53;36.57;101191.50;5058431;28;45320;-44
2022/02/15 10:34:29;;;;;;;;;2.25;2.00;;;;;19.54;36.11;101190.56;5058136;28;46573;-40
2022/02/15 10:36:57;;;;;;;;;0.75;0.00;;;;;19.56;36.50;101196.63;5039657;28;45591;-45
2022/02/15 10:39:33;;;;;;;;;0.75;0.00;;;;;19.55;36.31;101184.38;5057995;28;45450;-44
2022/02/15 10:42:12;;;;;;;;;0.25;0.25;;;;;19.54;36.37;101183.53;5058590;28;45436;-42
2022/02/15 10:45:08;;;;;;;;;1.00;1.00;;;;;19.54;36.30;101183.53;5039610;28;46941;-42
2022/02/15 10:47:36;;;;;;;;;1.75;0.00;;;;;19.54;36.38;101172.16;5037083;28;45716;-42
2022/02/15 10:50:07;;;;;;;;;1.25;1.00;;;;;19.54;36.41;101161.66;5058141;28;45371;-42
2022/02/15 10:52:33;;;;;;;;;0.25;0.25;;;;;19.54;36.21;101145.88;5040223;28;45486;-48
2022/02/15 10:54:58;;;;;;;;;1.25;0.00;;;;;19.53;36.59;101146.78;5057687;28;46993;-43
2022/02/15 10:57:25;;;;;;;;;2.00;1.25;;;;;19.53;36.23;101141.53;5057581;28;45368;-43
2022/02/15 10:59:54;;;;;;;;;2.00;0.00;;;;;19.53;36.62;101138.91;5057602;28;45321;-42
2022/02/15 11:02:25;;;;;;;;;1.00;1.00;;;;;19.53;36.68;101138.91;5057641;28;45443;-42
2022/02/15 11:04:55;;;;;;;;;2.25;1.00;;;;;19.53;36.61;101145.00;5057158;28;46683;-43
2022/02/15 11:07:23;;;;;;;;;1.00;1.00;;;;;19.54;37.01;101143.25;5057215;28;45328;-42
2022/02/15 11:10:21;;;;;;;;;2.00;1.00;;;;;19.53;36.31;101131.03;5057498;28;45230;-43
2022/02/15 11:12:56;;;;;;;;;2.25;0.50;;;;;19.53;36.45;101128.38;5057376;28;45354;-44
2022/02/15 11:15:32;;;;;;;;;1.75;0.00;;;;;19.54;36.96;101124.84;5056984;28;46768;-44
2022/02/15 11:18:04;;;;;;;;;2.00;1.00;;;;;19.54;36.77;101114.31;5055745;28;45810;-44
2022/02/15 11:20:54;;;;;;;;;0.00;0.00;;;;;19.53;36.71;101118.72;5057434;28;45794;-42
2022/02/15 11:23:23;;;;;;;;;2.50;1.00;;;;;19.51;36.35;101123.22;5057329;28;45356;-45
2022/02/15 11:25:50;;;;;;;;;1.00;1.00;;;;;19.52;36.71;101117.00;5056979;28;46498;-44
2022/02/15 11:28:19;;;;;;;;;1.00;1.00;;;;;19.51;36.25;101112.69;5057032;28;45653;-43